Archival Weather

Heathrow

London, United Kingdom (EGLL)

Report from: Monday, July 18, 2022 3:20 AM BST
Current time: Wednesday, December 6, 2023 7:30 AM GMT

Current weather – Weather history – Daily summaries
Weather forecast

Temperature20.0°C (68.0°F)
Dew point9.0°C (48.2°F)
Winds 1 kts (0.5 m/s, 1.2 mph) North-Northeast (30°)
Visibility6.2 mi. (10 km)
Clouds Sky clear
Altimeter30.15 in.Hg (1021 mB)
Relative humidity49 %
Density altitude489 ft. (149 m)
Remarks Fully automated report
No clouds detected
No significant changes expected in the next two hours
Flight conditions Visual Meteorological Conditions
Raw dataEGLL 180220Z AUTO 03001KT 9999 NCD 20/09 Q1021 NOSIG
An error has occurred. This application may no longer respond until reloaded. Reload 🗙